createdAt,value
2022-10-07T00:01:02.211Z,7.13
2022-10-07T00:03:30.317Z,7.53
2022-10-07T00:06:13.642Z,8.00
2022-10-07T00:08:43.965Z,8.45
2022-10-07T00:11:14.264Z,6.65
2022-10-07T00:13:43.662Z,7.43
2022-10-07T00:16:14.313Z,8.75
2022-10-07T00:18:41.902Z,7.30
2022-10-07T00:21:12.077Z,6.88
2022-10-07T00:23:40.392Z,8.48
2022-10-07T00:26:10.930Z,6.10
2022-10-07T00:28:38.520Z,6.15
2022-10-07T00:31:13.696Z,8.57
2022-10-07T00:33:41.791Z,8.23
2022-10-07T00:36:18.287Z,6.72
2022-10-07T00:38:46.048Z,7.43
2022-10-07T00:41:21.879Z,6.60
2022-10-07T00:43:49.464Z,14.45
2022-10-07T00:46:23.263Z,9.30
2022-10-07T00:48:50.834Z,9.50
2022-10-07T00:51:18.786Z,7.45
2022-10-07T00:53:51.013Z,5.65
2022-10-07T00:56:18.673Z,5.60
2022-10-07T00:58:47.953Z,10.07
2022-10-07T01:01:15.901Z,7.05
2022-10-07T01:03:45.963Z,6.50
2022-10-07T01:06:13.161Z,7.13
2022-10-07T01:08:40.747Z,6.57
2022-10-07T01:11:32.176Z,7.43
2022-10-07T01:14:31.055Z,6.53
2022-10-07T01:17:32.972Z,8.02
2022-10-07T01:20:00.192Z,7.85
2022-10-07T01:22:39.207Z,7.68
2022-10-07T01:25:42.694Z,5.32
2022-10-07T01:28:29.270Z,7.70
2022-10-07T01:31:00.519Z,6.57
2022-10-07T01:33:32.444Z,12.52
2022-10-07T01:36:07.275Z,7.50
2022-10-07T01:38:36.969Z,7.18
2022-10-07T01:41:10.290Z,8.23
2022-10-07T01:43:38.904Z,7.60
2022-10-07T01:46:09.848Z,9.95
2022-10-07T01:48:37.264Z,10.48
2022-10-07T01:51:09.050Z,9.73
2022-10-07T01:53:42.069Z,10.25
2022-10-07T01:56:28.425Z,9.05
2022-10-07T01:59:11.173Z,9.70
2022-10-07T02:01:53.822Z,11.65
2022-10-07T02:04:33.351Z,10.88
2022-10-07T02:07:36.869Z,11.45
2022-10-07T02:10:04.389Z,13.23
2022-10-07T02:12:51.587Z,15.90
2022-10-07T02:15:34.872Z,15.07
2022-10-07T02:18:07.416Z,18.13
2022-10-07T02:20:39.774Z,15.43
2022-10-07T02:23:12.854Z,12.10
2022-10-07T02:25:45.772Z,16.58
2022-10-07T02:28:16.225Z,15.32
2022-10-07T02:30:47.886Z,18.08
2022-10-07T02:33:15.677Z,19.13
2022-10-07T02:35:49.686Z,13.90
2022-10-07T02:38:18.705Z,13.77
2022-10-07T02:41:04.469Z,12.85
2022-10-07T02:43:44.756Z,12.52
2022-10-07T02:46:32.797Z,12.90
2022-10-07T02:49:07.861Z,13.93
2022-10-07T02:52:05.463Z,12.18
2022-10-07T02:54:58.039Z,11.23
2022-10-07T02:57:31.053Z,11.35
2022-10-07T03:00:01.189Z,10.33
2022-10-07T03:02:40.837Z,10.48
2022-10-07T03:05:09.443Z,10.20
2022-10-07T03:07:37.284Z,11.48
2022-10-07T03:10:09.379Z,9.32
2022-10-07T03:12:37.218Z,16.13
2022-10-07T03:15:04.819Z,10.63
2022-10-07T03:17:32.172Z,9.63
2022-10-07T03:19:59.837Z,9.23
2022-10-07T03:22:27.485Z,10.80
2022-10-07T03:24:54.788Z,20.23
2022-10-07T03:27:22.033Z,14.00
2022-10-07T03:29:50.293Z,12.23
2022-10-07T03:32:18.072Z,10.07
2022-10-07T03:34:45.497Z,10.10
2022-10-07T03:37:12.691Z,9.95
2022-10-07T03:39:39.970Z,12.20
2022-10-07T03:42:07.184Z,10.55
2022-10-07T03:44:35.685Z,12.85
2022-10-07T03:47:07.599Z,12.82
2022-10-07T03:49:40.264Z,14.80
2022-10-07T03:52:07.416Z,14.93
2022-10-07T03:54:34.768Z,11.10
2022-10-07T03:57:01.964Z,10.77
2022-10-07T03:59:29.462Z,13.65
2022-10-07T04:01:56.944Z,10.57
2022-10-07T04:04:24.352Z,12.02
2022-10-07T04:06:51.924Z,9.98
2022-10-07T04:09:19.166Z,14.05
2022-10-07T04:11:46.385Z,11.85
2022-10-07T04:14:13.954Z,10.57
2022-10-07T04:16:42.217Z,11.50
2022-10-07T04:19:11.907Z,11.93
2022-10-07T04:21:39.184Z,10.57
2022-10-07T04:24:06.492Z,15.98
2022-10-07T04:26:35.620Z,12.30
2022-10-07T04:29:02.851Z,16.77
2022-10-07T04:31:30.651Z,10.40
2022-10-07T04:34:02.825Z,14.35
2022-10-07T04:36:36.039Z,11.50
2022-10-07T04:39:27.086Z,16.63
2022-10-07T04:42:06.022Z,15.38
2022-10-07T04:44:34.270Z,14.35
2022-10-07T04:47:08.082Z,20.20
2022-10-07T04:49:38.365Z,14.30
2022-10-07T04:52:08.506Z,10.57
2022-10-07T04:54:39.512Z,12.20
2022-10-07T04:57:10.222Z,18.25
2022-10-07T04:59:42.493Z,12.13
2022-10-07T05:02:11.960Z,10.07
2022-10-07T05:04:39.505Z,12.82
2022-10-07T05:07:06.664Z,11.80
2022-10-07T05:09:35.930Z,13.18
2022-10-07T05:12:03.273Z,11.95
2022-10-07T05:14:33.007Z,15.27
2022-10-07T05:17:01.149Z,11.00
2022-10-07T05:19:32.837Z,10.95
2022-10-07T05:22:00.117Z,11.27
2022-10-07T05:24:27.564Z,10.30
2022-10-07T05:26:55.342Z,9.98
2022-10-07T05:29:22.883Z,8.18
2022-10-07T05:31:53.765Z,11.25
2022-10-07T05:34:24.220Z,8.88
2022-10-07T05:36:53.375Z,12.75
2022-10-07T05:39:20.784Z,11.05
2022-10-07T05:41:51.930Z,9.90
2022-10-07T05:44:25.347Z,11.98
2022-10-07T05:46:55.480Z,10.05
2022-10-07T05:49:23.328Z,13.02
2022-10-07T05:51:51.617Z,13.57
2022-10-07T05:54:18.995Z,11.85
2022-10-07T05:56:46.563Z,30.40
2022-10-07T05:59:15.853Z,20.95
2022-10-07T06:01:45.343Z,13.98
2022-10-07T06:04:19.348Z,17.50
2022-10-07T06:06:48.547Z,17.13
2022-10-07T06:09:34.388Z,12.48
2022-10-07T06:12:25.665Z,10.60
2022-10-07T06:14:54.800Z,14.07
2022-10-07T06:17:22.617Z,9.77
2022-10-07T06:19:51.874Z,16.80
2022-10-07T06:22:21.916Z,13.77
2022-10-07T06:24:52.300Z,11.77
2022-10-07T06:27:20.198Z,14.68
2022-10-07T06:29:47.556Z,10.50
2022-10-07T06:32:14.891Z,10.85
2022-10-07T06:34:45.083Z,10.88
2022-10-07T06:37:13.420Z,15.45
2022-10-07T06:39:41.406Z,9.90
2022-10-07T06:42:09.549Z,16.60
2022-10-07T06:44:59.533Z,13.52
2022-10-07T06:47:26.942Z,13.43
2022-10-07T06:49:54.270Z,11.02
2022-10-07T06:52:21.591Z,13.90
2022-10-07T06:54:48.839Z,13.15
2022-10-07T06:57:43.691Z,9.50
2022-10-07T07:00:06.262Z,14.50
2022-10-07T07:02:36.392Z,17.15
2022-10-07T07:05:08.229Z,13.77
2022-10-07T07:07:36.033Z,9.95
2022-10-07T07:10:04.091Z,12.27
2022-10-07T07:12:33.441Z,9.40
2022-10-07T07:15:00.542Z,10.63
2022-10-07T07:17:27.896Z,9.70
2022-10-07T07:19:56.585Z,12.93
2022-10-07T07:22:23.810Z,13.00
2022-10-07T07:24:51.282Z,7.70
2022-10-07T07:27:18.837Z,10.15
2022-10-07T07:29:46.328Z,10.68
2022-10-07T07:32:13.662Z,8.68
2022-10-07T07:34:43.456Z,7.95
2022-10-07T07:37:15.095Z,9.60
2022-10-07T07:39:47.453Z,7.45
2022-10-07T07:42:19.013Z,8.75
2022-10-07T07:44:48.066Z,7.47
2022-10-07T07:47:17.344Z,8.48
2022-10-07T07:49:46.171Z,8.57
2022-10-07T07:52:20.585Z,8.57
2022-10-07T07:54:49.026Z,9.02
2022-10-07T07:57:16.612Z,8.38
2022-10-07T07:59:43.739Z,6.40
2022-10-07T08:02:13.769Z,8.95
2022-10-07T08:04:44.517Z,6.35
2022-10-07T08:07:15.083Z,7.75
2022-10-07T08:09:45.458Z,7.43
2022-10-07T08:12:17.228Z,9.85
2022-10-07T08:14:44.507Z,11.45
2022-10-07T08:17:13.246Z,14.13
2022-10-07T08:19:42.560Z,8.32
2022-10-07T08:22:10.502Z,9.35
2022-10-07T08:24:37.888Z,11.15
2022-10-07T08:27:05.489Z,11.88
2022-10-07T08:29:32.849Z,14.38
2022-10-07T08:31:59.982Z,12.73
2022-10-07T08:34:27.366Z,17.98
2022-10-07T08:36:56.509Z,10.82
2022-10-07T08:39:24.767Z,36.58
2022-10-07T08:42:13.633Z,20.58
2022-10-07T08:44:44.555Z,42.60
2022-10-07T08:47:48.449Z,12.63
2022-10-07T08:50:31.042Z,9.07
2022-10-07T08:53:05.846Z,28.45
2022-10-07T08:55:45.059Z,8.38
2022-10-07T08:58:29.906Z,11.38
2022-10-07T09:01:07.432Z,11.07
2022-10-07T09:04:06.075Z,7.25
2022-10-07T09:07:04.235Z,8.10
2022-10-07T09:09:53.910Z,9.65
2022-10-07T09:12:50.584Z,10.43
2022-10-07T09:15:23.973Z,10.10
2022-10-07T09:17:59.405Z,6.28
2022-10-07T09:20:40.233Z,12.63
2022-10-07T09:23:12.920Z,11.95
2022-10-07T09:25:44.302Z,10.13
2022-10-07T09:28:17.287Z,9.68
2022-10-07T09:30:44.844Z,7.72
2022-10-07T09:33:18.908Z,7.60
2022-10-07T09:35:57.572Z,14.05
2022-10-07T09:38:37.117Z,10.35
2022-10-07T09:41:31.992Z,11.27
2022-10-07T09:44:05.603Z,11.90
2022-10-07T09:46:52.676Z,9.70
2022-10-07T09:49:29.025Z,9.50
2022-10-07T09:52:11.256Z,5.28
2022-10-07T09:54:46.825Z,7.13
2022-10-07T09:57:31.199Z,5.63
2022-10-07T10:00:13.828Z,7.53
2022-10-07T10:03:05.179Z,7.93
2022-10-07T10:08:13.701Z,8.70
2022-10-07T10:10:51.548Z,6.03
2022-10-07T10:13:35.358Z,14.48
2022-10-07T10:16:06.169Z,8.38
2022-10-07T10:18:40.588Z,9.93
2022-10-07T10:21:28.898Z,9.65
2022-10-07T10:23:59.413Z,13.23
2022-10-07T10:26:34.676Z,8.50
2022-10-07T10:29:32.026Z,9.30
2022-10-07T10:32:02.597Z,35.65
2022-10-07T10:35:03.336Z,7.68
2022-10-07T10:37:48.309Z,23.98
2022-10-07T10:40:57.824Z,6.88
2022-10-07T10:43:25.002Z,8.63
2022-10-07T10:46:16.164Z,4.38
2022-10-07T10:49:01.796Z,13.70
2022-10-07T10:51:44.352Z,76.15
2022-10-07T10:54:18.133Z,28.58
2022-10-07T10:56:54.513Z,7.78
2022-10-07T10:59:49.636Z,4.95
2022-10-07T11:02:29.609Z,9.20
2022-10-07T11:05:17.589Z,8.30
2022-10-07T11:07:51.681Z,6.60
2022-10-07T11:10:26.390Z,7.55
2022-10-07T11:13:00.363Z,5.95
2022-10-07T11:15:33.663Z,7.60
2022-10-07T11:18:14.468Z,4.43
2022-10-07T11:20:48.305Z,21.02
2022-10-07T11:23:37.157Z,101.57
2022-10-07T11:26:29.986Z,19.35
2022-10-07T11:29:06.022Z,29.58
2022-10-07T11:31:47.870Z,11.32
2022-10-07T11:35:13.792Z,5.60
2022-10-07T11:37:54.780Z,36.13
2022-10-07T11:40:31.018Z,4.30
2022-10-07T11:43:09.262Z,27.80
2022-10-07T11:45:50.220Z,8.32
2022-10-07T11:50:56.072Z,5.30
2022-10-07T11:53:27.354Z,5.18
2022-10-07T11:56:12.645Z,4.47
2022-10-07T11:58:40.062Z,5.15
2022-10-07T12:01:25.588Z,18.58
2022-10-07T12:03:54.904Z,7.22
2022-10-07T12:06:22.129Z,5.78
2022-10-07T12:08:49.612Z,4.57
2022-10-07T12:11:19.865Z,4.90
2022-10-07T12:14:25.617Z,93.75
2022-10-07T12:16:55.411Z,5.70
2022-10-07T12:19:23.988Z,4.40
2022-10-07T12:22:00.390Z,19.98
2022-10-07T12:24:29.075Z,7.25
2022-10-07T12:27:06.993Z,10.60
2022-10-07T12:29:51.112Z,4.85
2022-10-07T12:32:40.436Z,5.05
2022-10-07T12:35:30.235Z,6.50
2022-10-07T12:38:18.817Z,4.43
2022-10-07T12:40:51.873Z,5.43
2022-10-07T12:43:34.648Z,4.88
2022-10-07T12:46:07.729Z,6.05
2022-10-07T12:48:45.673Z,14.77
2022-10-07T12:51:27.100Z,6.15
2022-10-07T12:53:56.189Z,6.65
2022-10-07T12:56:30.290Z,11.48
2022-10-07T12:59:34.912Z,8.85
2022-10-07T13:02:42.125Z,7.13
2022-10-07T13:05:19.338Z,5.60
2022-10-07T13:08:01.388Z,8.90
2022-10-07T13:10:37.549Z,8.18
2022-10-07T13:13:10.246Z,7.88
2022-10-07T13:16:08.646Z,7.40
2022-10-07T13:18:57.782Z,8.30
2022-10-07T13:21:33.364Z,8.70
2022-10-07T13:24:00.802Z,8.45
2022-10-07T13:26:28.198Z,7.97
2022-10-07T13:28:57.521Z,9.80
2022-10-07T13:31:31.084Z,9.27
2022-10-07T13:34:00.369Z,6.35
2022-10-07T13:36:30.899Z,8.32
2022-10-07T13:39:16.230Z,11.43
2022-10-07T13:41:47.464Z,6.45
2022-10-07T13:44:18.505Z,9.10
2022-10-07T13:47:07.291Z,7.40
2022-10-07T13:49:38.869Z,6.68
2022-10-07T13:52:17.525Z,10.43
2022-10-07T13:54:51.861Z,8.63
2022-10-07T13:57:21.466Z,7.53
2022-10-07T13:59:51.880Z,8.20
2022-10-07T14:02:20.760Z,6.03
2022-10-07T14:05:01.622Z,9.20
2022-10-07T14:07:29.612Z,9.13
2022-10-07T14:09:59.658Z,6.90
2022-10-07T14:12:35.035Z,9.35
2022-10-07T14:15:21.707Z,8.32
2022-10-07T14:17:55.361Z,6.75
2022-10-07T14:20:37.960Z,7.93
2022-10-07T14:23:26.136Z,9.73
2022-10-07T14:25:59.428Z,6.75
2022-10-07T14:28:31.512Z,5.70
2022-10-07T14:31:24.113Z,5.18
2022-10-07T14:34:15.907Z,8.38
2022-10-07T14:37:05.235Z,5.43
2022-10-07T14:39:47.929Z,6.43
2022-10-07T14:42:18.326Z,9.07
2022-10-07T14:44:45.916Z,7.53
2022-10-07T14:47:13.368Z,5.50
2022-10-07T14:49:43.428Z,6.80
2022-10-07T14:52:31.691Z,6.57
2022-10-07T14:55:01.501Z,6.25
2022-10-07T14:57:28.730Z,6.05
2022-10-07T14:59:56.345Z,7.45
2022-10-07T15:02:24.428Z,5.28
2022-10-07T15:04:51.810Z,9.82
2022-10-07T15:07:19.509Z,8.98
2022-10-07T15:09:46.966Z,8.20
2022-10-07T15:12:16.249Z,5.22
2022-10-07T15:14:43.625Z,5.60
2022-10-07T15:17:15.570Z,5.85
2022-10-07T15:19:42.842Z,9.27
2022-10-07T15:22:10.049Z,6.53
2022-10-07T15:24:37.556Z,5.78
2022-10-07T15:27:06.623Z,6.28
2022-10-07T15:29:33.822Z,10.32
2022-10-07T15:32:01.017Z,6.90
2022-10-07T15:34:28.242Z,7.22
2022-10-07T15:36:55.532Z,7.30
2022-10-07T15:39:22.771Z,6.50
2022-10-07T15:41:50.062Z,7.90
2022-10-07T15:44:19.761Z,8.43
2022-10-07T15:46:48.456Z,7.05
2022-10-07T15:49:19.118Z,6.35
2022-10-07T15:51:46.909Z,6.93
2022-10-07T15:54:14.633Z,6.75
2022-10-07T15:56:42.965Z,8.50
2022-10-07T15:59:10.597Z,5.35
2022-10-07T16:01:37.823Z,7.95
2022-10-07T16:04:06.144Z,9.00
2022-10-07T16:06:35.668Z,6.63
2022-10-07T16:09:04.017Z,8.70
2022-10-07T16:11:33.340Z,9.15
2022-10-07T16:14:02.270Z,6.97
2022-10-07T16:16:31.535Z,7.90
2022-10-07T16:19:00.527Z,6.65
2022-10-07T16:21:33.729Z,5.53
2022-10-07T16:24:06.974Z,8.77
2022-10-07T16:26:36.035Z,8.82
2022-10-07T16:29:24.711Z,7.63
2022-10-07T16:31:58.178Z,7.75
2022-10-07T16:34:27.294Z,5.57
2022-10-07T16:36:55.442Z,8.73
2022-10-07T16:39:22.851Z,6.97
2022-10-07T16:41:53.838Z,6.65
2022-10-07T16:44:22.590Z,6.15
2022-10-07T16:46:50.027Z,7.55
2022-10-07T16:49:18.726Z,7.72
2022-10-07T16:51:46.611Z,6.78
2022-10-07T16:54:16.529Z,6.18
2022-10-07T16:56:47.153Z,5.05
2022-10-07T16:59:23.901Z,7.40
2022-10-07T17:01:56.680Z,5.30
2022-10-07T17:04:25.064Z,6.28
2022-10-07T17:06:53.235Z,22.17
2022-10-07T17:09:22.273Z,18.20
2022-10-07T17:11:49.647Z,10.23
2022-10-07T17:14:20.028Z,5.70
2022-10-07T17:16:51.552Z,5.30
2022-10-07T17:19:22.139Z,7.03
2022-10-07T17:21:53.209Z,10.73
2022-10-07T17:24:23.922Z,9.33
2022-10-07T17:26:55.262Z,8.65
2022-10-07T17:29:26.352Z,7.25
2022-10-07T17:31:54.170Z,41.78
2022-10-07T17:34:22.449Z,51.42
2022-10-07T17:36:50.593Z,116.55
2022-10-07T17:39:20.299Z,87.20
2022-10-07T17:41:48.272Z,69.30
2022-10-07T17:44:15.744Z,215.85
2022-10-07T17:46:43.372Z,64.88
2022-10-07T17:49:14.553Z,96.68
2022-10-07T17:51:45.688Z,47.83
2022-10-07T17:54:14.061Z,51.63
2022-10-07T17:56:44.727Z,82.50
2022-10-07T17:59:13.414Z,124.88
2022-10-07T18:01:45.131Z,68.68
2022-10-07T18:04:15.953Z,75.88
2022-10-07T18:06:47.073Z,125.30
2022-10-07T18:09:21.017Z,90.38
2022-10-07T18:12:11.561Z,214.00
2022-10-07T18:14:57.538Z,35.13
2022-10-07T18:17:25.030Z,71.63
2022-10-07T18:19:52.505Z,61.38
2022-10-07T18:22:20.304Z,57.40
2022-10-07T18:24:47.623Z,75.40
2022-10-07T18:27:15.916Z,56.03
2022-10-07T18:29:43.152Z,21.75
2022-10-07T18:32:10.542Z,81.00
2022-10-07T18:34:38.058Z,37.70
2022-10-07T18:37:05.284Z,25.40
2022-10-07T18:39:32.485Z,22.77
2022-10-07T18:41:59.812Z,24.17
2022-10-07T18:44:27.553Z,18.70
2022-10-07T18:46:55.318Z,116.32
2022-10-07T18:49:22.799Z,260.00
2022-10-07T18:51:53.497Z,309.60
2022-10-07T18:54:21.266Z,238.38
2022-10-07T18:56:50.059Z,502.10
2022-10-07T18:59:18.857Z,274.17
2022-10-07T19:01:50.502Z,439.08
2022-10-07T19:04:19.503Z,182.75
2022-10-07T19:06:47.495Z,242.65
2022-10-07T19:09:18.353Z,348.55
2022-10-07T19:11:45.812Z,60.08
2022-10-07T19:14:13.949Z,16.48
2022-10-07T19:16:43.900Z,10.82
2022-10-07T19:19:21.774Z,15.63
2022-10-07T19:21:51.827Z,57.85
2022-10-07T19:24:19.973Z,170.90
2022-10-07T19:26:50.053Z,298.10
2022-10-07T19:29:18.327Z,198.70
2022-10-07T19:31:50.169Z,178.15
2022-10-07T19:34:22.632Z,113.13
2022-10-07T19:36:50.761Z,110.35
2022-10-07T19:39:21.305Z,119.75
2022-10-07T19:41:51.819Z,105.07
2022-10-07T19:44:19.571Z,97.75
2022-10-07T19:46:50.344Z,195.13
2022-10-07T19:49:20.754Z,159.98
2022-10-07T19:51:47.964Z,117.22
2022-10-07T19:54:15.119Z,78.35
2022-10-07T19:56:42.863Z,37.20
2022-10-07T19:59:12.666Z,123.00
2022-10-07T20:01:43.043Z,73.15
2022-10-07T20:04:16.403Z,103.00
2022-10-07T20:06:44.928Z,187.48
2022-10-07T20:09:15.014Z,64.30
2022-10-07T20:11:43.264Z,66.72
2022-10-07T20:14:15.619Z,107.82
2022-10-07T20:16:46.062Z,88.75
2022-10-07T20:19:16.634Z,67.20
2022-10-07T20:21:45.266Z,194.93
2022-10-07T20:24:14.813Z,89.75
2022-10-07T20:26:44.635Z,89.55
2022-10-07T20:29:13.985Z,100.60
2022-10-07T20:31:42.301Z,55.80
2022-10-07T20:34:15.126Z,121.25
2022-10-07T20:36:42.878Z,201.68
2022-10-07T20:39:36.650Z,94.15
2022-10-07T20:42:26.718Z,164.80
2022-10-07T20:45:07.445Z,47.70
2022-10-07T20:47:35.633Z,138.15
2022-10-07T20:50:03.239Z,93.03
2022-10-07T20:52:33.291Z,65.13
2022-10-07T20:55:00.506Z,47.70
2022-10-07T20:57:34.088Z,31.40
2022-10-07T21:00:01.371Z,32.78
2022-10-07T21:02:30.258Z,21.23
2022-10-07T21:04:59.480Z,25.65
2022-10-07T21:07:26.727Z,24.92
2022-10-07T21:09:56.454Z,16.90
2022-10-07T21:12:27.618Z,15.85
2022-10-07T21:15:00.640Z,28.60
2022-10-07T21:17:27.861Z,28.75
2022-10-07T21:19:56.074Z,14.20
2022-10-07T21:22:24.007Z,25.20
2022-10-07T21:24:52.863Z,11.15
2022-10-07T21:27:20.406Z,13.57
2022-10-07T21:29:48.849Z,18.65
2022-10-07T21:32:16.199Z,14.00
2022-10-07T21:34:49.706Z,17.48
2022-10-07T21:37:19.725Z,17.85
2022-10-07T21:39:47.286Z,37.40
2022-10-07T21:42:15.825Z,39.70
2022-10-07T21:44:44.574Z,23.90
2022-10-07T21:47:12.386Z,31.10
2022-10-07T21:49:39.615Z,24.15
2022-10-07T21:52:08.097Z,25.98
2022-10-07T21:54:38.516Z,44.53
2022-10-07T21:57:05.784Z,11.75
2022-10-07T21:59:35.228Z,10.25
2022-10-07T22:02:02.929Z,13.00
2022-10-07T22:04:30.984Z,14.15
2022-10-07T22:07:17.237Z,12.98
2022-10-07T22:09:44.504Z,12.05
2022-10-07T22:12:11.680Z,11.02
2022-10-07T22:14:39.800Z,12.77
2022-10-07T22:17:07.898Z,12.98
2022-10-07T22:19:35.108Z,21.33
2022-10-07T22:22:02.247Z,33.15
2022-10-07T22:24:29.654Z,22.67
2022-10-07T22:27:00.278Z,16.88
2022-10-07T22:29:28.528Z,14.73
2022-10-07T22:31:55.818Z,14.45
2022-10-07T22:34:42.799Z,9.98
2022-10-07T22:37:10.377Z,10.77
2022-10-07T22:39:37.848Z,13.55
2022-10-07T22:42:05.422Z,17.35
2022-10-07T22:44:33.406Z,23.75
2022-10-07T22:47:00.989Z,24.90
2022-10-07T22:49:30.275Z,21.42
2022-10-07T22:51:59.804Z,15.15
2022-10-07T22:54:27.457Z,15.57
2022-10-07T22:56:55.054Z,13.85
2022-10-07T22:59:22.201Z,12.88
2022-10-07T23:01:49.403Z,10.50
2022-10-07T23:04:20.358Z,10.30
2022-10-07T23:06:47.750Z,16.58
2022-10-07T23:09:15.553Z,9.90
2022-10-07T23:11:42.946Z,12.10
2022-10-07T23:14:10.222Z,11.13
2022-10-07T23:16:38.266Z,10.15
2022-10-07T23:19:05.467Z,8.57
2022-10-07T23:21:35.787Z,14.65
2022-10-07T23:24:07.705Z,13.13
2022-10-07T23:26:36.521Z,11.30
2022-10-07T23:29:04.351Z,17.25
2022-10-07T23:31:32.729Z,14.65
2022-10-07T23:34:01.433Z,12.88
2022-10-07T23:36:29.735Z,7.55
2022-10-07T23:38:59.132Z,7.95
2022-10-07T23:41:29.266Z,10.05
2022-10-07T23:43:58.858Z,13.43
2022-10-07T23:46:27.703Z,11.60
2022-10-07T23:48:56.260Z,8.65
2022-10-07T23:51:26.195Z,7.95
2022-10-07T23:53:55.646Z,7.85
2022-10-07T23:56:23.110Z,9.38
2022-10-07T23:58:51.277Z,10.25
